createdAt,value
2022-11-24T00:02:23.961Z,100451.22
2022-11-24T00:04:50.681Z,100452.06
2022-11-24T00:07:17.292Z,100454.69
2022-11-24T00:09:43.881Z,100448.59
2022-11-24T00:12:10.455Z,100452.91
2022-11-24T00:14:37.036Z,100454.69
2022-11-24T00:17:03.677Z,100460.81
2022-11-24T00:19:30.333Z,100453.88
2022-11-24T00:21:56.897Z,100453.88
2022-11-24T00:24:23.474Z,100453.88
2022-11-24T00:26:50.053Z,100453.88
2022-11-24T00:29:16.787Z,100447.94
2022-11-24T00:31:43.452Z,100450.25
2022-11-24T00:34:12.596Z,100456.50
2022-11-24T00:36:40.014Z,100455.69
2022-11-24T00:39:14.767Z,100459.16
2022-11-24T00:41:42.089Z,100459.16
2022-11-24T00:44:09.043Z,100462.00
2022-11-24T00:46:35.959Z,100467.06
2022-11-24T00:49:02.655Z,100469.72
2022-11-24T00:51:30.453Z,100466.09
2022-11-24T00:53:58.444Z,100463.63
2022-11-24T00:56:25.944Z,100464.44
2022-11-24T00:58:52.954Z,100462.78
2022-11-24T01:01:22.155Z,100462.63
2022-11-24T01:03:48.941Z,100469.72
2022-11-24T01:06:18.148Z,100462.78
2022-11-24T01:08:45.496Z,100465.25
2022-11-24T01:11:26.238Z,100459.97
2022-11-24T01:13:59.412Z,100462.63
2022-11-24T01:16:30.749Z,100464.44
2022-11-24T01:18:57.700Z,100462.78
2022-11-24T01:21:24.532Z,100467.06
2022-11-24T01:23:51.187Z,100466.28
2022-11-24T01:26:20.451Z,100470.53
2022-11-24T01:28:47.917Z,100466.28
2022-11-24T01:31:15.730Z,100463.63
2022-11-24T01:33:42.522Z,100464.44
2022-11-24T01:36:09.177Z,100468.91
2022-11-24T01:38:35.761Z,100464.44
2022-11-24T01:41:04.024Z,100469.72
2022-11-24T01:43:30.935Z,100468.75
2022-11-24T01:45:58.933Z,100462.78
2022-11-24T01:48:33.298Z,100474.03
2022-11-24T01:51:13.601Z,100479.31
2022-11-24T01:53:42.450Z,100486.22
2022-11-24T01:56:10.260Z,100491.50
2022-11-24T01:58:37.642Z,100482.75
2022-11-24T02:01:04.393Z,100486.22
2022-11-24T02:03:34.430Z,100489.03
2022-11-24T02:06:13.555Z,100490.69
2022-11-24T02:08:57.632Z,100490.69
2022-11-24T02:11:26.813Z,100492.50
2022-11-24T02:13:54.097Z,100488.03
2022-11-24T02:16:20.804Z,100491.50
2022-11-24T02:18:47.448Z,100487.22
2022-11-24T02:21:16.133Z,100494.16
2022-11-24T02:23:57.362Z,100488.88
2022-11-24T02:26:30.007Z,100496.78
2022-11-24T02:28:56.907Z,100503.88
2022-11-24T02:31:23.639Z,100516.28
2022-11-24T02:33:51.903Z,100511.63
2022-11-24T02:36:18.481Z,100517.94
2022-11-24T02:38:45.080Z,100515.44
2022-11-24T02:41:15.305Z,100515.44
2022-11-24T02:43:45.201Z,100512.81
2022-11-24T02:46:11.943Z,100513.63
2022-11-24T02:48:38.985Z,100515.28
2022-11-24T02:51:05.783Z,100525.00
2022-11-24T02:53:32.333Z,100525.19
2022-11-24T02:55:58.929Z,100529.50
2022-11-24T02:58:25.521Z,100534.78
2022-11-24T03:00:54.323Z,100524.22
2022-11-24T03:03:21.932Z,100520.91
2022-11-24T03:05:48.682Z,100526.00
2022-11-24T03:08:15.276Z,100523.38
2022-11-24T03:10:42.111Z,100528.50
2022-11-24T03:13:08.729Z,100525.84
2022-11-24T03:15:35.888Z,100520.91
2022-11-24T03:18:02.533Z,100520.09
2022-11-24T03:20:29.490Z,100522.53
2022-11-24T03:22:56.956Z,100526.19
2022-11-24T03:25:23.634Z,100513.97
2022-11-24T03:27:50.226Z,100511.16
2022-11-24T03:30:16.901Z,100515.63
2022-11-24T03:32:43.604Z,100524.38
2022-11-24T03:35:10.186Z,100515.63
2022-11-24T03:37:37.351Z,100524.22
2022-11-24T03:40:04.372Z,100528.50
2022-11-24T03:42:30.950Z,100519.72
2022-11-24T03:44:57.525Z,100519.09
2022-11-24T03:47:24.119Z,100502.25
2022-11-24T03:49:50.709Z,100513.44
2022-11-24T03:52:17.293Z,100516.09
2022-11-24T03:54:43.888Z,100524.00
2022-11-24T03:57:10.483Z,100544.16
2022-11-24T03:59:37.069Z,100531.94
2022-11-24T04:02:03.705Z,100524.84
2022-11-24T04:04:30.598Z,100527.50
2022-11-24T04:06:57.280Z,100537.22
2022-11-24T04:09:23.833Z,100543.34
2022-11-24T04:12:08.925Z,100534.78
2022-11-24T04:14:35.752Z,100540.84
2022-11-24T04:17:04.240Z,100541.69
2022-11-24T04:19:31.112Z,100549.63
2022-11-24T04:21:57.774Z,100541.03
2022-11-24T04:24:24.339Z,100545.50
2022-11-24T04:26:50.943Z,100558.34
2022-11-24T04:29:17.525Z,100555.22
2022-11-24T04:31:44.220Z,100554.22
2022-11-24T04:34:11.394Z,100555.91
2022-11-24T04:36:37.993Z,100552.59
2022-11-24T04:39:19.796Z,100548.94
2022-11-24T04:41:51.211Z,100555.06
2022-11-24T04:44:17.878Z,100559.34
2022-11-24T04:46:44.577Z,100561.34
2022-11-24T04:49:11.829Z,100571.75
2022-11-24T04:51:39.585Z,100569.28
2022-11-24T04:54:07.994Z,100574.56
2022-11-24T04:56:34.561Z,100578.84
2022-11-24T04:59:06.645Z,100584.28
2022-11-24T05:01:34.815Z,100592.88
2022-11-24T05:04:01.535Z,100590.41
2022-11-24T05:06:28.215Z,100592.88
2022-11-24T05:08:55.182Z,100597.31
2022-11-24T05:11:21.757Z,100602.44
2022-11-24T05:13:48.355Z,100601.59
2022-11-24T05:16:15.332Z,100603.63
2022-11-24T05:18:45.307Z,100607.72
2022-11-24T05:21:11.872Z,100610.38
2022-11-24T05:23:38.636Z,100620.09
2022-11-24T05:26:05.356Z,100621.09
2022-11-24T05:28:32.338Z,100618.47
2022-11-24T05:31:00.668Z,100614.19
2022-11-24T05:33:28.667Z,100617.63
2022-11-24T05:35:55.334Z,100624.56
2022-11-24T05:38:23.699Z,100634.16
2022-11-24T05:40:50.439Z,100625.53
2022-11-24T05:43:17.494Z,100638.75
2022-11-24T05:45:44.565Z,100637.94
2022-11-24T05:48:14.466Z,100642.06
2022-11-24T05:50:41.569Z,100643.88
2022-11-24T05:53:10.472Z,100648.34
2022-11-24T05:55:37.680Z,100647.34
2022-11-24T05:58:06.365Z,100651.63
2022-11-24T06:00:34.319Z,100648.16
2022-11-24T06:03:01.403Z,100655.28
2022-11-24T06:05:28.722Z,100648.34
2022-11-24T06:07:55.767Z,100655.28
2022-11-24T06:10:26.333Z,100663.19
2022-11-24T06:12:53.186Z,100664.38
2022-11-24T06:15:19.878Z,100667.81
2022-11-24T06:17:55.931Z,100677.41
2022-11-24T06:20:25.138Z,100678.22
2022-11-24T06:22:58.017Z,100676.56
2022-11-24T06:25:24.832Z,100677.41
2022-11-24T06:27:51.415Z,100673.09
2022-11-24T06:30:18.133Z,100678.38
2022-11-24T06:32:49.353Z,100679.38
2022-11-24T06:35:17.183Z,100684.31
2022-11-24T06:37:43.899Z,100689.63
2022-11-24T06:40:10.894Z,100692.25
2022-11-24T06:42:37.773Z,100690.78
2022-11-24T06:45:09.112Z,100696.69
2022-11-24T06:47:36.241Z,100703.63
2022-11-24T06:50:02.923Z,100703.81
2022-11-24T06:52:29.516Z,100704.63
2022-11-24T06:54:57.277Z,100706.47
2022-11-24T06:57:23.896Z,100708.09
2022-11-24T06:59:50.678Z,100705.63
2022-11-24T07:02:17.310Z,100713.56
2022-11-24T07:04:43.915Z,100713.56
2022-11-24T07:07:10.621Z,100706.47
2022-11-24T07:09:37.285Z,100709.09
2022-11-24T07:12:04.887Z,100708.25
2022-11-24T07:14:32.245Z,100714.38
2022-11-24T07:16:59.176Z,100713.56
2022-11-24T07:19:25.857Z,100721.31
2022-11-24T07:21:52.464Z,100721.47
2022-11-24T07:24:19.196Z,100729.41
2022-11-24T07:26:45.847Z,100723.13
2022-11-24T07:29:12.434Z,100724.13
2022-11-24T07:31:39.230Z,100726.75
2022-11-24T07:34:06.269Z,100735.53
2022-11-24T07:36:32.875Z,100729.41
2022-11-24T07:38:59.608Z,100732.03
2022-11-24T07:41:26.225Z,100739.13
2022-11-24T07:43:53.127Z,100742.44
2022-11-24T07:46:20.289Z,100738.97
2022-11-24T07:48:47.531Z,100733.53
2022-11-24T07:51:14.494Z,100728.25
2022-11-24T07:53:41.209Z,100735.31
2022-11-24T07:56:09.112Z,100733.53
2022-11-24T07:58:37.193Z,100733.53
2022-11-24T08:01:12.138Z,100731.56
2022-11-24T08:03:38.933Z,100732.53
2022-11-24T08:08:52.317Z,100734.19
2022-11-24T08:11:18.958Z,100735.16
2022-11-24T08:13:45.921Z,100740.44
2022-11-24T08:16:17.532Z,100738.81
2022-11-24T08:18:44.875Z,100745.72
2022-11-24T08:21:14.769Z,100752.69
2022-11-24T08:23:42.077Z,100750.19
2022-11-24T08:26:16.063Z,100748.38
2022-11-24T08:28:43.497Z,100748.38
2022-11-24T08:31:15.853Z,100755.50
2022-11-24T08:33:43.031Z,100757.28
2022-11-24T08:36:12.431Z,100764.22
2022-11-24T08:38:39.188Z,100765.22
2022-11-24T08:41:11.587Z,100772.16
2022-11-24T08:43:38.649Z,100780.22
2022-11-24T08:46:07.863Z,100786.34
2022-11-24T08:48:34.678Z,100781.91
2022-11-24T08:51:08.759Z,100779.25
2022-11-24T08:53:35.364Z,100782.72
2022-11-24T08:56:03.361Z,100787.03
2022-11-24T08:58:30.496Z,100776.63
2022-11-24T09:01:04.962Z,100783.56
2022-11-24T09:03:31.605Z,100788.00
2022-11-24T09:05:58.246Z,100792.47
2022-11-24T09:08:24.832Z,100795.75
2022-11-24T09:10:51.683Z,100782.72
2022-11-24T09:13:18.503Z,100789.66
2022-11-24T09:15:45.095Z,100798.25
2022-11-24T09:18:11.736Z,100796.44
2022-11-24T09:20:41.085Z,100786.03
2022-11-24T09:23:07.679Z,100788.66
2022-11-24T09:25:34.290Z,100789.47
2022-11-24T09:28:01.042Z,100788.50
2022-11-24T09:30:28.665Z,100785.03
2022-11-24T09:32:56.830Z,100780.75
2022-11-24T09:35:24.412Z,100792.78
2022-11-24T09:37:51.332Z,100803.34
2022-11-24T09:40:18.336Z,100801.53
2022-11-24T09:43:09.068Z,100798.06
2022-11-24T09:46:08.200Z,100799.88
2022-11-24T09:48:42.996Z,100802.53
2022-11-24T09:51:14.390Z,100799.88
2022-11-24T09:53:45.376Z,100805.16
2022-11-24T09:56:20.895Z,100802.69
2022-11-24T09:58:59.515Z,100814.72
2022-11-24T10:01:34.480Z,100823.66
2022-11-24T10:04:06.411Z,100822.00
2022-11-24T10:06:44.587Z,100826.31
2022-11-24T10:09:48.610Z,100823.81
2022-11-24T10:12:52.643Z,100838.03
2022-11-24T10:15:19.329Z,100826.66
2022-11-24T10:17:48.606Z,100831.09
2022-11-24T10:20:21.161Z,100822.19
2022-11-24T10:22:47.673Z,100826.66
2022-11-24T10:25:34.707Z,100824.97
2022-11-24T10:28:12.345Z,100833.59
2022-11-24T10:30:39.015Z,100825.81
2022-11-24T10:33:16.722Z,100822.19
2022-11-24T10:35:54.009Z,100833.59
2022-11-24T10:38:42.841Z,100834.56
2022-11-24T10:41:26.595Z,100828.28
2022-11-24T10:43:53.239Z,100824.00
2022-11-24T10:46:23.859Z,100825.66
2022-11-24T10:48:53.807Z,100822.19
2022-11-24T10:51:59.466Z,100825.50
2022-11-24T10:54:26.100Z,100826.31
2022-11-24T10:56:54.156Z,100827.13
2022-11-24T10:59:37.220Z,100821.00
2022-11-24T11:02:26.733Z,100820.38
2022-11-24T11:04:53.393Z,100824.66
2022-11-24T11:07:25.601Z,100821.00
2022-11-24T11:10:19.582Z,100819.22
2022-11-24T11:12:46.266Z,100813.94
2022-11-24T11:15:32.103Z,100810.44
2022-11-24T11:18:01.573Z,100807.66
2022-11-24T11:20:37.232Z,100812.78
2022-11-24T11:23:15.012Z,100815.41
2022-11-24T11:25:41.621Z,100836.38
2022-11-24T11:28:18.422Z,100832.91
2022-11-24T11:31:22.226Z,100832.91
2022-11-24T11:34:09.483Z,100834.56
2022-11-24T11:36:51.746Z,100834.56
2022-11-24T11:39:35.484Z,100840.03
2022-11-24T11:43:00.716Z,100824.97
2022-11-24T11:45:26.636Z,100827.63
2022-11-24T11:48:02.804Z,100827.63
2022-11-24T11:51:21.803Z,100817.91
2022-11-24T11:53:47.211Z,100823.97
2022-11-24T11:56:26.244Z,100823.97
2022-11-24T11:58:55.788Z,100841.66
2022-11-24T12:01:28.197Z,100834.56
2022-11-24T12:04:25.814Z,100835.72
2022-11-24T12:07:13.601Z,100838.19
2022-11-24T12:09:56.313Z,100831.25
2022-11-24T12:12:57.342Z,100834.75
2022-11-24T12:15:37.065Z,100828.63
2022-11-24T12:18:40.683Z,100827.63
2022-11-24T12:21:12.368Z,100827.63
2022-11-24T12:24:06.177Z,100823.97
2022-11-24T12:26:44.943Z,100826.47
2022-11-24T12:29:42.310Z,100830.94
2022-11-24T12:32:18.436Z,100828.31
2022-11-24T12:34:51.594Z,100831.75
2022-11-24T12:37:26.608Z,100832.59
2022-11-24T12:40:01.932Z,100831.75
2022-11-24T12:42:55.914Z,100833.38
2022-11-24T12:45:48.697Z,100828.09
2022-11-24T12:48:38.495Z,100832.59
2022-11-24T12:51:07.771Z,100838.69
2022-11-24T12:53:35.100Z,100842.31
2022-11-24T12:56:10.939Z,100851.09
2022-11-24T12:58:42.543Z,100853.72
2022-11-24T13:01:33.778Z,100858.00
2022-11-24T13:04:21.571Z,100855.38
2022-11-24T13:07:12.577Z,100864.13
2022-11-24T13:10:17.456Z,100863.28
2022-11-24T13:13:16.468Z,100864.28
2022-11-24T13:16:34.683Z,100862.44
2022-11-24T13:18:53.354Z,100868.56
2022-11-24T13:21:52.842Z,100873.22
2022-11-24T13:24:22.254Z,100872.22
2022-11-24T13:27:15.679Z,100874.03
2022-11-24T13:29:43.239Z,100872.22
2022-11-24T13:32:11.708Z,100868.91
2022-11-24T13:34:41.375Z,100870.56
2022-11-24T13:37:31.746Z,100874.19
2022-11-24T13:40:14.105Z,100882.78
2022-11-24T13:43:01.409Z,100895.16
2022-11-24T13:45:41.049Z,100898.63
2022-11-24T13:48:20.305Z,100901.13
2022-11-24T13:50:50.455Z,100908.22
2022-11-24T13:53:38.203Z,100904.56
2022-11-24T13:56:13.990Z,100902.94
2022-11-24T13:58:42.702Z,100910.00
2022-11-24T14:01:18.144Z,100913.50
2022-11-24T14:04:27.927Z,100914.50
2022-11-24T14:06:53.219Z,100913.50
2022-11-24T14:09:25.662Z,100918.78
2022-11-24T14:12:02.142Z,100921.41
2022-11-24T14:14:28.779Z,100930.19
2022-11-24T14:17:29.253Z,100929.34
2022-11-24T14:19:57.419Z,100936.44
2022-11-24T14:22:26.922Z,100939.06
2022-11-24T14:24:57.913Z,100935.63
2022-11-24T14:27:30.511Z,100936.44
2022-11-24T14:30:05.063Z,100945.19
2022-11-24T14:32:31.719Z,100953.13
2022-11-24T14:34:58.511Z,100953.13
2022-11-24T14:37:25.425Z,100955.78
2022-11-24T14:39:52.120Z,100961.06
2022-11-24T14:42:18.669Z,100958.41
2022-11-24T14:44:49.319Z,100954.13
2022-11-24T14:47:41.175Z,100967.50
2022-11-24T14:50:20.704Z,100970.13
2022-11-24T14:52:55.261Z,100978.06
2022-11-24T14:55:29.933Z,100979.88
2022-11-24T14:57:57.683Z,100981.53
2022-11-24T15:00:24.165Z,100987.78
2022-11-24T15:02:53.445Z,100987.78
2022-11-24T15:05:22.364Z,100994.91
2022-11-24T15:07:50.643Z,100994.91
2022-11-24T15:10:33.791Z,100994.91
2022-11-24T15:13:03.486Z,100992.13
2022-11-24T15:15:37.462Z,100989.63
2022-11-24T15:18:05.505Z,100987.78
2022-11-24T15:20:45.977Z,100996.41
2022-11-24T15:23:12.511Z,100994.06
2022-11-24T15:25:39.244Z,100992.28
2022-11-24T15:28:05.893Z,100996.72
2022-11-24T15:30:35.004Z,100997.56
2022-11-24T15:33:02.018Z,101001.00
2022-11-24T15:35:32.618Z,101011.75
2022-11-24T15:37:59.253Z,101017.69
2022-11-24T15:40:25.842Z,101007.28
2022-11-24T15:42:54.885Z,101016.84
2022-11-24T15:45:23.964Z,101023.97
2022-11-24T15:47:50.918Z,101025.78
2022-11-24T15:50:18.117Z,101024.78
2022-11-24T15:52:45.383Z,101025.78
2022-11-24T15:55:30.110Z,101017.84
2022-11-24T15:57:56.793Z,101025.78
2022-11-24T16:00:24.138Z,101018.84
2022-11-24T16:02:50.825Z,101016.34
2022-11-24T16:05:17.888Z,101022.31
2022-11-24T16:07:44.692Z,101025.78
2022-11-24T16:10:25.142Z,101016.34
2022-11-24T16:12:51.764Z,101017.34
2022-11-24T16:15:18.403Z,101029.41
2022-11-24T16:17:45.025Z,101030.25
2022-11-24T16:20:11.747Z,101026.94
2022-11-24T16:22:38.342Z,101028.41
2022-11-24T16:25:05.587Z,101033.69
2022-11-24T16:27:32.169Z,101034.69
2022-11-24T16:29:58.909Z,101034.69
2022-11-24T16:32:25.765Z,101032.06
2022-11-24T16:34:52.463Z,101039.13
2022-11-24T16:37:20.999Z,101038.19
2022-11-24T16:39:50.178Z,101035.53
2022-11-24T16:42:17.320Z,101039.00
2022-11-24T16:44:44.080Z,101038.19
2022-11-24T16:47:12.834Z,101042.47
2022-11-24T16:49:39.754Z,101047.75
2022-11-24T16:52:06.336Z,101045.91
2022-11-24T16:54:33.164Z,101041.63
2022-11-24T16:57:00.226Z,101051.19
2022-11-24T16:59:26.820Z,101053.84
2022-11-24T17:01:53.519Z,101059.13
2022-11-24T17:04:20.273Z,101064.41
2022-11-24T17:06:46.856Z,101061.97
2022-11-24T17:09:13.495Z,101060.97
2022-11-24T17:11:40.375Z,101072.34
2022-11-24T17:14:07.011Z,101065.25
2022-11-24T17:16:33.619Z,101071.53
2022-11-24T17:19:00.334Z,101072.34
2022-11-24T17:21:27.922Z,101066.25
2022-11-24T17:23:59.190Z,101061.78
2022-11-24T17:26:27.029Z,101064.59
2022-11-24T17:28:54.182Z,101051.38
2022-11-24T17:31:39.813Z,101056.81
2022-11-24T17:34:07.525Z,101068.06
2022-11-24T17:36:34.837Z,101068.88
2022-11-24T17:39:06.053Z,101071.69
2022-11-24T17:41:33.397Z,101060.13
2022-11-24T17:44:00.005Z,101062.91
2022-11-24T17:46:27.962Z,101069.88
2022-11-24T17:48:55.163Z,101071.69
2022-11-24T17:51:23.942Z,101067.06
2022-11-24T17:53:52.119Z,101068.88
2022-11-24T17:56:22.963Z,101078.47
2022-11-24T17:58:54.135Z,101089.03
2022-11-24T18:01:21.305Z,101077.63
2022-11-24T18:03:53.424Z,101082.91
2022-11-24T18:06:20.825Z,101085.41
2022-11-24T18:08:47.993Z,101083.75
2022-11-24T18:11:16.922Z,101093.16
2022-11-24T18:14:01.179Z,101085.41
2022-11-24T18:16:30.243Z,101092.19
2022-11-24T18:19:07.803Z,101093.16
2022-11-24T18:21:35.434Z,101084.41
2022-11-24T18:24:02.030Z,101084.25
2022-11-24T18:26:28.775Z,101080.94
2022-11-24T18:28:55.407Z,101098.16
2022-11-24T18:31:22.453Z,101085.94
2022-11-24T18:33:49.289Z,101094.00
2022-11-24T18:36:19.243Z,101090.38
2022-11-24T18:38:46.077Z,101087.88
2022-11-24T18:41:14.327Z,101098.16
2022-11-24T18:43:41.416Z,101093.84
2022-11-24T18:46:11.902Z,101098.16
2022-11-24T18:48:38.542Z,101093.84
2022-11-24T18:51:05.347Z,101097.47
2022-11-24T18:53:31.999Z,101108.88
2022-11-24T18:56:04.077Z,101110.38
2022-11-24T18:58:31.935Z,101108.03
2022-11-24T19:01:08.178Z,101114.00
2022-11-24T19:03:40.510Z,101108.72
2022-11-24T19:06:14.580Z,101108.03
2022-11-24T19:08:41.440Z,101105.22
2022-11-24T19:11:16.591Z,101106.06
2022-11-24T19:13:43.146Z,101114.00
2022-11-24T19:16:13.182Z,101117.63
2022-11-24T19:18:39.977Z,101117.63
2022-11-24T19:21:06.577Z,101123.56
2022-11-24T19:23:33.229Z,101119.28
2022-11-24T19:26:01.157Z,101115.66
2022-11-24T19:28:27.766Z,101117.63
2022-11-24T19:30:54.742Z,101118.44
2022-11-24T19:33:21.605Z,101120.94
2022-11-24T19:35:48.187Z,101121.78
2022-11-24T19:38:15.316Z,101122.72
2022-11-24T19:40:42.033Z,101122.59
2022-11-24T19:43:08.626Z,101121.78
2022-11-24T19:45:35.246Z,101112.00
2022-11-24T19:48:01.868Z,101119.94
2022-11-24T19:50:28.450Z,101121.78
2022-11-24T19:52:55.056Z,101132.16
2022-11-24T19:55:21.629Z,101129.69
2022-11-24T19:57:48.235Z,101127.88
2022-11-24T20:00:16.245Z,101130.50
2022-11-24T20:02:42.996Z,101134.81
2022-11-24T20:05:09.674Z,101140.09
2022-11-24T20:07:36.410Z,101139.28
2022-11-24T20:10:07.709Z,101140.09
2022-11-24T20:12:34.704Z,101143.72
2022-11-24T20:15:01.318Z,101148.00
2022-11-24T20:17:30.104Z,101150.00
2022-11-24T20:19:56.720Z,101149.00
2022-11-24T20:22:23.461Z,101161.22
2022-11-24T20:24:50.040Z,101157.78
2022-11-24T20:27:16.673Z,101159.56
2022-11-24T20:29:46.764Z,101158.75
2022-11-24T20:32:19.395Z,101159.56
2022-11-24T20:34:46.540Z,101156.28
2022-11-24T20:37:13.882Z,101156.94
2022-11-24T20:39:40.490Z,101157.94
2022-11-24T20:42:07.378Z,101162.22
2022-11-24T20:44:34.266Z,101161.22
2022-11-24T20:47:02.888Z,101160.56
2022-11-24T20:49:29.625Z,101160.56
2022-11-24T20:51:57.301Z,101163.22
2022-11-24T20:54:24.004Z,101167.50
2022-11-24T20:56:50.644Z,101169.34
2022-11-24T20:59:21.335Z,101165.69
2022-11-24T21:01:49.886Z,101167.50
2022-11-24T21:04:23.220Z,101169.16
2022-11-24T21:06:50.029Z,101172.63
2022-11-24T21:09:16.988Z,101170.00
2022-11-24T21:11:43.658Z,101176.13
2022-11-24T21:14:10.795Z,101171.78
2022-11-24T21:16:39.267Z,101180.72
2022-11-24T21:19:08.755Z,101185.84
2022-11-24T21:21:36.471Z,101175.44
2022-11-24T21:24:14.076Z,101181.41
2022-11-24T21:26:41.399Z,101175.44
2022-11-24T21:29:08.455Z,101177.91
2022-11-24T21:31:39.507Z,101177.09
2022-11-24T21:34:07.037Z,101172.63
2022-11-24T21:36:35.053Z,101177.09
2022-11-24T21:39:02.453Z,101174.44
2022-11-24T21:41:31.327Z,101183.22
2022-11-24T21:43:58.112Z,101179.56
2022-11-24T21:46:25.173Z,101183.22
2022-11-24T21:48:52.132Z,101183.22
2022-11-24T21:51:20.758Z,101189.50
2022-11-24T21:53:48.187Z,101195.75
2022-11-24T21:56:17.695Z,101196.56
2022-11-24T21:58:45.968Z,101205.50
2022-11-24T22:01:13.011Z,101214.25
2022-11-24T22:03:39.763Z,101214.25
2022-11-24T22:06:06.773Z,101213.56
2022-11-24T22:08:33.530Z,101220.34
2022-11-24T22:11:08.456Z,101211.78
2022-11-24T22:13:35.232Z,101216.91
2022-11-24T22:16:13.641Z,101217.72
2022-11-24T22:18:41.901Z,101214.41
2022-11-24T22:21:11.885Z,101210.78
2022-11-24T22:23:38.506Z,101215.22
2022-11-24T22:26:13.690Z,101216.06
2022-11-24T22:28:40.852Z,101216.06
2022-11-24T22:31:15.988Z,101221.34
2022-11-24T22:33:43.833Z,101218.72
2022-11-24T22:36:11.407Z,101225.78
2022-11-24T22:38:37.990Z,101234.41
2022-11-24T22:41:06.843Z,101234.56
2022-11-24T22:43:35.023Z,101231.06
2022-11-24T22:46:06.504Z,101238.03
2022-11-24T22:48:33.634Z,101237.19
2022-11-24T22:51:08.811Z,101236.38
2022-11-24T22:53:35.424Z,101234.56
2022-11-24T22:56:11.984Z,101235.41
2022-11-24T22:58:39.398Z,101232.91
2022-11-24T23:01:07.965Z,101234.56
2022-11-24T23:03:35.498Z,101239.00
2022-11-24T23:06:04.027Z,101240.84
2022-11-24T23:08:33.217Z,101235.56
2022-11-24T23:11:01.822Z,101233.06
2022-11-24T23:13:28.722Z,101240.00
2022-11-24T23:16:06.773Z,101241.84
2022-11-24T23:18:34.142Z,101236.53
2022-11-24T23:21:21.226Z,101237.34
2022-11-24T23:23:48.833Z,101238.34
2022-11-24T23:26:23.704Z,101233.91
2022-11-24T23:28:50.439Z,101240.00
2022-11-24T23:31:19.443Z,101235.69
2022-11-24T23:33:46.423Z,101232.22
2022-11-24T23:36:15.931Z,101230.41
2022-11-24T23:38:42.849Z,101233.22
2022-11-24T23:41:12.066Z,101236.69
2022-11-24T23:43:40.468Z,101240.16
2022-11-24T23:46:09.793Z,101233.22
2022-11-24T23:48:37.006Z,101234.72
2022-11-24T23:51:08.101Z,101233.06
2022-11-24T23:53:35.864Z,101233.06
2022-11-24T23:56:02.620Z,101239.19
2022-11-24T23:58:29.550Z,101235.84
